Time;durP1;ratioP1;P1;durP2;ratioP2;P2;SDS_P1;SDS_P2;PMS_P1;PMS_P2;Temp;Humidity;BMP_temperature;BMP_pressure;BME280_temperature;BME280_humidity;BME280_pressure;Samples;Min_cycle;Max_cycle;Signal;HPM_P1;HPM_P2
2023/08/25 00:02:59;;;;;;;4.60;3.90;;;26.20;60.00;;;;;;222426;1260;22640;-58
2023/08/25 00:08:03;;;;;;;6.40;4.30;;;26.20;59.90;;;;;;222563;1268;22649;-60
2023/08/25 00:13:06;;;;;;;5.50;4.90;;;26.20;59.80;;;;;;222985;1268;22511;-57
2023/08/25 00:18:09;;;;;;;4.40;4.10;;;26.20;59.80;;;;;;222376;1266;275565;-58
2023/08/25 00:23:12;;;;;;;5.10;4.40;;;26.20;60.20;;;;;;222241;1254;24149;-57
2023/08/25 00:28:14;;;;;;;4.40;4.00;;;26.20;59.80;;;;;;221968;1266;22671;-57
2023/08/25 00:33:17;;;;;;;6.40;4.20;;;26.20;59.80;;;;;;222182;1268;22663;-57
2023/08/25 00:38:20;;;;;;;4.40;4.00;;;26.30;59.90;;;;;;222957;1254;22511;-57
2023/08/25 00:43:23;;;;;;;3.90;3.60;;;26.30;59.80;;;;;;226068;1263;22530;-58
2023/08/25 00:48:30;;;;;;;4.10;3.80;;;26.30;59.50;;;;;;222380;1245;22508;-57
2023/08/25 00:53:34;;;;;;;4.50;4.10;;;26.30;59.60;;;;;;222293;1260;22640;-58
2023/08/25 00:58:38;;;;;;;5.20;3.90;;;26.20;59.70;;;;;;222583;1268;22539;-57
2023/08/25 01:03:42;;;;;;;4.60;4.10;;;26.20;60.10;;;;;;222613;1260;22753;-59
2023/08/25 01:08:46;;;;;;;3.80;3.50;;;26.20;59.70;;;;;;222616;1268;24191;-57
2023/08/25 01:14:11;;;;;;;5.10;4.10;;;26.30;59.80;;;;;;222906;1261;22526;-57
2023/08/25 01:19:26;;;;;;;4.20;3.80;;;26.20;59.70;;;;;;222458;1264;22519;-57
2023/08/25 01:24:33;;;;;;;4.00;3.70;;;26.20;59.50;;;;;;222742;1262;23483;-57
2023/08/25 01:29:42;;;;;;;4.90;4.20;;;26.20;59.50;;;;;;222807;1263;23825;-58
2023/08/25 01:34:46;;;;;;;4.20;3.80;;;26.20;59.30;;;;;;222640;1254;25433;-57
2023/08/25 01:39:56;;;;;;;4.50;3.80;;;26.20;59.30;;;;;;222747;1261;24059;-58
2023/08/25 01:45:02;;;;;;;5.40;4.00;;;26.20;59.30;;;;;;222643;1261;24285;-57
2023/08/25 01:50:08;;;;;;;4.20;3.70;;;26.20;59.30;;;;;;222595;1263;24200;-58
2023/08/25 01:55:10;;;;;;;6.20;4.00;;;26.20;59.40;;;;;;222594;1261;22513;-57
2023/08/25 02:00:14;;;;;;;5.00;4.10;;;26.20;59.80;;;;;;222759;1268;23965;-59
2023/08/25 02:05:17;;;;;;;4.90;4.50;;;26.30;59.50;;;;;;222580;1266;25329;-57
2023/08/25 02:10:20;;;;;;;6.00;3.60;;;26.30;59.50;;;;;;222867;1260;23862;-56
2023/08/25 02:15:25;;;;;;;5.40;4.20;;;26.20;59.40;;;;;;222725;1268;22829;-58
2023/08/25 02:20:28;;;;;;;5.30;4.00;;;26.20;59.70;;;;;;222417;1253;22622;-57
2023/08/25 02:25:31;;;;;;;4.80;4.30;;;26.20;59.40;;;;;;222315;1256;22514;-58
2023/08/25 02:30:34;;;;;;;4.60;4.20;;;26.20;59.60;;;;;;222534;1266;23904;-56
2023/08/25 02:35:38;;;;;;;5.20;4.10;;;26.20;59.60;;;;;;224796;1258;22608;-57
2023/08/25 02:40:42;;;;;;;5.20;4.50;;;26.30;60.00;;;;;;223677;1260;25356;-56
2023/08/25 02:45:48;;;;;;;5.80;4.40;;;26.40;59.40;;;;;;222913;1257;25430;-56
2023/08/25 02:50:51;;;;;;;5.40;4.50;;;26.30;59.40;;;;;;222472;1263;23911;-57
2023/08/25 02:55:54;;;;;;;5.00;4.50;;;26.20;59.70;;;;;;222294;1266;23949;-61
2023/08/25 03:00:56;;;;;;;5.10;4.60;;;26.30;59.60;;;;;;222388;1263;22748;-61
2023/08/25 03:06:02;;;;;;;4.70;4.10;;;26.20;59.70;;;;;;222311;1259;22528;-56
2023/08/25 03:11:08;;;;;;;4.50;4.20;;;26.20;59.70;;;;;;222357;1263;22639;-56
2023/08/25 03:16:11;;;;;;;5.30;4.80;;;26.30;59.80;;;;;;222315;1266;24074;-60
2023/08/25 03:21:14;;;;;;;5.20;4.70;;;26.20;59.80;;;;;;222183;1253;22514;-57
2023/08/25 03:26:17;;;;;;;5.20;4.40;;;26.20;59.80;;;;;;222223;1266;22678;-57
2023/08/25 03:31:21;;;;;;;5.50;5.00;;;26.20;60.00;;;;;;222474;1263;25564;-57
2023/08/25 03:36:25;;;;;;;5.30;4.80;;;26.20;60.00;;;;;;222723;1254;22572;-58
2023/08/25 03:41:27;;;;;;;6.30;5.20;;;26.20;59.80;;;;;;222547;1263;22523;-57
2023/08/25 03:46:34;;;;;;;5.60;5.10;;;26.20;60.40;;;;;;222407;1266;22641;-57
2023/08/25 03:51:37;;;;;;;4.70;4.30;;;26.10;60.10;;;;;;222704;1266;24264;-58
2023/08/25 03:56:40;;;;;;;5.60;5.00;;;26.10;60.10;;;;;;222357;1266;25278;-57
2023/08/25 04:01:45;;;;;;;5.50;5.00;;;26.20;60.50;;;;;;222535;1254;24902;-58
2023/08/25 04:06:48;;;;;;;6.10;4.90;;;26.20;60.30;;;;;;222159;1256;22523;-57
2023/08/25 04:11:53;;;;;;;5.60;5.10;;;26.10;60.50;;;;;;222367;1256;22519;-57
2023/08/25 04:16:58;;;;;;;5.90;4.60;;;26.20;60.70;;;;;;222437;1266;22567;-58
2023/08/25 04:22:01;;;;;;;6.20;5.30;;;26.20;60.80;;;;;;222635;1266;24195;-56
2023/08/25 04:27:06;;;;;;;6.50;5.20;;;26.20;60.40;;;;;;222307;1262;22535;-58
2023/08/25 04:32:08;;;;;;;6.10;5.20;;;26.20;60.60;;;;;;222548;1263;24193;-58
2023/08/25 04:37:14;;;;;;;5.40;4.70;;;26.20;60.60;;;;;;222447;1266;24436;-59
2023/08/25 04:42:17;;;;;;;5.30;4.80;;;26.20;60.80;;;;;;222374;1265;22517;-59
2023/08/25 04:47:23;;;;;;;5.70;4.50;;;26.20;60.80;;;;;;222515;1268;22674;-57
2023/08/25 04:52:26;;;;;;;6.00;5.40;;;26.20;60.60;;;;;;222931;1258;27221;-58
2023/08/25 04:57:30;;;;;;;5.80;5.20;;;26.20;60.50;;;;;;222537;1260;22804;-57
2023/08/25 05:02:33;;;;;;;6.40;4.90;;;26.20;60.70;;;;;;222468;1267;22517;-58
2023/08/25 05:07:39;;;;;;;6.10;5.00;;;26.20;61.20;;;;;;222201;1264;24218;-59
2023/08/25 05:12:41;;;;;;;6.20;5.10;;;26.20;61.10;;;;;;222854;1263;25265;-58
2023/08/25 05:17:44;;;;;;;5.40;4.90;;;26.20;61.30;;;;;;222536;1264;24152;-58
2023/08/25 05:22:50;;;;;;;5.70;5.10;;;26.20;61.20;;;;;;222823;1260;22528;-57
2023/08/25 05:27:54;;;;;;;8.40;5.90;;;26.20;61.10;;;;;;222229;1261;24760;-58
2023/08/25 05:32:58;;;;;;;5.60;5.10;;;26.20;61.40;;;;;;222544;1260;22511;-56
2023/08/25 05:38:27;;;;;;;5.30;4.80;;;26.20;61.50;;;;;;222434;1253;22601;-58
2023/08/25 05:43:30;;;;;;;6.10;5.20;;;26.20;61.50;;;;;;222583;1268;22533;-57
2023/08/25 05:48:32;;;;;;;6.10;5.20;;;26.20;61.50;;;;;;222646;1263;22515;-58
2023/08/25 05:53:36;;;;;;;6.20;4.80;;;26.20;61.60;;;;;;222863;1263;22531;-56
2023/08/25 05:58:42;;;;;;;7.10;5.30;;;26.30;61.60;;;;;;222534;1263;22513;-56
2023/08/25 06:03:47;;;;;;;5.50;4.90;;;26.30;61.50;;;;;;222559;1260;24748;-57
2023/08/25 06:08:50;;;;;;;5.90;5.30;;;26.40;61.70;;;;;;222437;1257;23013;-56
2023/08/25 06:13:53;;;;;;;5.70;5.10;;;26.40;61.70;;;;;;222157;1267;23913;-57
2023/08/25 06:18:55;;;;;;;6.10;5.10;;;26.40;61.80;;;;;;224434;1254;25478;-58
2023/08/25 06:23:58;;;;;;;21.10;6.20;;;26.60;61.70;;;;;;223480;1256;22636;-58
2023/08/25 06:29:01;;;;;;;22.30;7.50;;;26.50;62.00;;;;;;222052;1261;24709;-59
2023/08/25 06:34:04;;;;;;;7.00;5.40;;;26.10;62.80;;;;;;225819;1262;22549;-56
2023/08/25 06:39:07;;;;;;;13.60;6.50;;;26.30;62.90;;;;;;227322;1266;22514;-57
2023/08/25 06:44:10;;;;;;;5.90;5.40;;;26.40;63.00;;;;;;222107;1254;22514;-58
2023/08/25 06:49:13;;;;;;;8.10;5.80;;;26.40;62.90;;;;;;222336;1253;22525;-56
2023/08/25 06:54:16;;;;;;;10.20;6.30;;;26.40;63.10;;;;;;222405;1247;22526;-57
2023/08/25 06:59:19;;;;;;;7.40;6.10;;;26.20;63.70;;;;;;222279;1269;22885;-57
2023/08/25 07:04:22;;;;;;;8.70;6.80;;;26.30;64.30;;;;;;222352;1268;22933;-57
2023/08/25 07:09:25;;;;;;;10.40;6.00;;;26.20;64.40;;;;;;222394;1268;22525;-58
2023/08/25 07:14:30;;;;;;;7.30;5.60;;;26.30;64.40;;;;;;222550;1263;22649;-59
2023/08/25 07:19:33;;;;;;;9.50;6.00;;;26.30;65.00;;;;;;222524;1253;24220;-58
2023/08/25 07:24:36;;;;;;;6.70;5.90;;;26.30;65.70;;;;;;222340;1263;26615;-56
2023/08/25 07:29:39;;;;;;;6.90;6.20;;;26.30;65.80;;;;;;222342;1263;22563;-56
2023/08/25 07:34:44;;;;;;;7.70;6.70;;;26.40;66.00;;;;;;222357;1260;22567;-58
2023/08/25 07:39:52;;;;;;;8.10;5.60;;;26.50;66.10;;;;;;222642;1263;22593;-56
2023/08/25 07:44:55;;;;;;;8.40;6.00;;;26.40;66.20;;;;;;222622;1266;22776;-58
2023/08/25 07:49:58;;;;;;;9.30;6.70;;;26.50;66.60;;;;;;222326;1256;22759;-57
2023/08/25 07:55:01;;;;;;;9.00;6.30;;;26.60;66.70;;;;;;222577;1259;23009;-56
2023/08/25 08:00:09;;;;;;;10.10;6.30;;;26.50;67.50;;;;;;222256;1260;22538;-56
2023/08/25 08:05:14;;;;;;;8.20;6.50;;;26.70;68.20;;;;;;222571;1266;25335;-62
2023/08/25 08:10:17;;;;;;;10.90;6.20;;;26.70;68.00;;;;;;222792;1257;22808;-62
2023/08/25 08:15:21;;;;;;;16.60;6.80;;;26.70;68.00;;;;;;222169;1268;22511;-63
2023/08/25 08:20:27;;;;;;;11.20;6.10;;;26.80;68.30;;;;;;222314;1263;22516;-63
2023/08/25 08:25:32;;;;;;;10.50;5.80;;;26.80;67.20;;;;;;222177;1269;22971;-61
2023/08/25 08:30:35;;;;;;;7.40;6.00;;;26.80;67.50;;;;;;222331;1259;22626;-62
2023/08/25 08:35:38;;;;;;;8.50;6.60;;;26.90;67.60;;;;;;222349;1268;22511;-64
2023/08/25 08:40:41;;;;;;;7.10;6.00;;;26.90;67.00;;;;;;222381;1269;25544;-65
2023/08/25 08:45:45;;;;;;;10.70;6.50;;;26.90;67.70;;;;;;222591;1254;22560;-64
2023/08/25 08:50:49;;;;;;;10.20;5.70;;;26.90;67.20;;;;;;222501;1268;22565;-64
2023/08/25 08:55:53;;;;;;;8.30;5.90;;;27.00;66.10;;;;;;222497;1265;24236;-63
2023/08/25 09:00:57;;;;;;;6.80;5.80;;;27.00;66.70;;;;;;222680;1247;24268;-64
2023/08/25 09:06:03;;;;;;;9.10;5.40;;;27.10;66.90;;;;;;222720;1262;22785;-65
2023/08/25 09:11:06;;;;;;;10.20;5.40;;;27.00;67.30;;;;;;222393;1260;22619;-62
2023/08/25 09:16:18;;;;;;;7.30;5.20;;;27.10;66.80;;;;;;223082;1252;23791;-59
2023/08/25 09:21:21;;;;;;;6.00;5.10;;;27.20;66.20;;;;;;222763;1263;22640;-59
2023/08/25 09:26:29;;;;;;;6.70;5.20;;;27.30;65.90;;;;;;227482;1259;25404;-63
2023/08/25 09:31:32;;;;;;;6.30;5.00;;;27.40;65.20;;;;;;222630;1264;24372;-58
2023/08/25 09:36:53;;;;;;;5.70;4.80;;;27.50;65.00;;;;;;230002;1253;22941;-59
2023/08/25 09:41:55;;;;;;;9.80;5.20;;;27.60;63.90;;;;;;229919;1268;22388;-59
2023/08/25 09:46:58;;;;;;;6.10;4.50;;;27.80;63.20;;;;;;226337;1260;25449;-60
2023/08/25 09:52:01;;;;;;;6.30;4.70;;;27.90;62.10;;;;;;230148;1260;22189;-60
2023/08/25 09:57:04;;;;;;;6.20;4.20;;;27.80;62.00;;;;;;229960;1266;22507;-57
2023/08/25 10:02:10;;;;;;;7.70;4.50;;;27.90;61.80;;;;;;222436;1266;22521;-58
2023/08/25 10:07:13;;;;;;;4.90;3.80;;;27.90;61.50;;;;;;221889;1266;24424;-58
2023/08/25 10:12:20;;;;;;;5.50;3.80;;;27.90;62.10;;;;;;222065;1268;25398;-59
2023/08/25 10:17:25;;;;;;;7.40;3.90;;;28.00;62.50;;;;;;222454;1266;24401;-57
2023/08/25 10:22:30;;;;;;;8.10;3.90;;;27.90;63.00;;;;;;222448;1259;22511;-55
2023/08/25 10:27:32;;;;;;;4.80;3.80;;;28.10;62.60;;;;;;222653;1265;23124;-53
2023/08/25 10:32:58;;;;;;;4.70;4.00;;;28.10;62.80;;;;;;222689;1263;24889;-54
2023/08/25 10:38:02;;;;;;;6.70;3.80;;;28.10;62.80;;;;;;222148;1256;24231;-53
2023/08/25 10:43:05;;;;;;;5.80;3.80;;;28.10;63.60;;;;;;222093;1254;22633;-54
2023/08/25 10:48:10;;;;;;;4.30;3.90;;;28.10;63.50;;;;;;223401;1266;22553;-56
2023/08/25 10:53:51;;;;;;;6.60;4.20;;;28.30;63.80;;;;;;224645;1265;22524;-59
2023/08/25 10:59:11;;;;;;;5.70;4.20;;;28.30;63.20;;;;;;227233;1269;22536;-56
2023/08/25 11:04:23;;;;;;;9.80;3.90;;;28.40;63.00;;;;;;228169;1264;22817;-53
2023/08/25 11:09:26;;;;;;;8.50;3.50;;;28.70;62.30;;;;;;226562;1266;22727;-55
2023/08/25 11:14:38;;;;;;;6.70;4.10;;;28.70;62.40;;;;;;227612;1262;22892;-54
2023/08/25 11:19:42;;;;;;;3.50;3.20;;;28.80;61.40;;;;;;227652;1265;22788;-52
2023/08/25 11:24:46;;;;;;;6.30;4.00;;;28.20;59.10;;;;;;226434;1269;22650;-56
2023/08/25 11:29:49;;;;;;;4.70;3.40;;;27.40;57.50;;;;;;222194;1263;22638;-57
2023/08/25 11:34:52;;;;;;;4.30;3.60;;;26.90;56.30;;;;;;222380;1263;22599;-57
2023/08/25 11:39:57;;;;;;;3.60;3.20;;;26.70;55.30;;;;;;222468;1263;23368;-56
2023/08/25 11:45:09;;;;;;;8.20;3.40;;;26.40;53.20;;;;;;222552;1260;25217;-58
2023/08/25 11:50:13;;;;;;;3.60;3.10;;;26.20;52.30;;;;;;221968;1266;24238;-56
2023/08/25 11:55:15;;;;;;;4.30;3.10;;;26.20;51.50;;;;;;222443;1260;24356;-57
2023/08/25 12:00:19;;;;;;;2.90;2.70;;;26.10;50.80;;;;;;222360;1268;22626;-56
2023/08/25 12:05:28;;;;;;;3.40;2.70;;;26.30;53.60;;;;;;222862;1261;22624;-56
2023/08/25 12:10:38;;;;;;;3.30;2.90;;;27.10;53.40;;;;;;222217;1269;24418;-57
2023/08/25 12:15:44;;;;;;;4.40;3.20;;;27.40;54.00;;;;;;222158;1260;211513;-56
2023/08/25 12:20:50;;;;;;;6.70;3.20;;;27.60;56.00;;;;;;222583;1266;24292;-57
2023/08/25 12:25:54;;;;;;;6.00;3.20;;;27.90;56.60;;;;;;222297;1260;22520;-56
2023/08/25 12:31:00;;;;;;;3.20;3.00;;;28.00;57.30;;;;;;222340;1263;22676;-54
2023/08/25 12:36:04;;;;;;;3.40;3.10;;;28.00;58.80;;;;;;222431;1256;24776;-56
2023/08/25 12:41:07;;;;;;;6.40;3.30;;;28.20;59.30;;;;;;222185;1253;22636;-55
2023/08/25 12:46:10;;;;;;;5.00;2.90;;;28.20;59.50;;;;;;222190;1266;22577;-56
2023/08/25 12:51:15;;;;;;;4.30;3.10;;;28.20;59.80;;;;;;222445;1266;22783;-57
2023/08/25 12:56:18;;;;;;;5.50;3.10;;;28.20;60.30;;;;;;222093;1266;22539;-56
2023/08/25 13:01:22;;;;;;;6.60;3.20;;;28.20;60.40;;;;;;222069;1259;22549;-56
2023/08/25 13:06:25;;;;;;;7.60;3.30;;;28.20;60.60;;;;;;222442;1256;22662;-58
2023/08/25 13:11:27;;;;;;;73.50;48.40;;;28.20;60.60;;;;;;222481;1260;22645;-56
2023/08/25 13:16:31;;;;;;;63.80;36.50;;;28.50;60.60;;;;;;222403;1269;25281;-57
2023/08/25 13:21:34;;;;;;;40.10;26.60;;;28.40;61.80;;;;;;222093;1268;22611;-58
2023/08/25 13:26:37;;;;;;;34.30;22.80;;;28.60;61.50;;;;;;222551;1266;22643;-58
2023/08/25 13:31:39;;;;;;;34.00;21.30;;;28.60;62.40;;;;;;222302;1257;22547;-57
2023/08/25 13:36:42;;;;;;;31.60;21.20;;;28.70;61.60;;;;;;222287;1268;22602;-55
2023/08/25 13:41:48;;;;;;;32.00;19.10;;;28.70;62.00;;;;;;222179;1266;22517;-57
2023/08/25 13:47:00;;;;;;;23.50;17.00;;;28.80;62.10;;;;;;222355;1268;22509;-56
2023/08/25 13:52:04;;;;;;;19.90;14.10;;;28.80;62.50;;;;;;222161;1266;22525;-57
2023/08/25 13:57:07;;;;;;;17.90;11.30;;;28.80;62.30;;;;;;222514;1268;25488;-56
2023/08/25 14:02:10;;;;;;;14.30;10.50;;;28.90;62.50;;;;;;221747;1260;22622;-58
2023/08/25 14:07:13;;;;;;;16.90;10.40;;;29.00;61.90;;;;;;224614;1268;22530;-57
2023/08/25 14:12:17;;;;;;;17.40;10.00;;;28.90;61.70;;;;;;222234;1268;22634;-57
2023/08/25 14:17:20;;;;;;;12.50;8.50;;;28.90;61.20;;;;;;222395;1266;22778;-57
2023/08/25 14:22:23;;;;;;;12.60;8.20;;;28.90;61.50;;;;;;222313;1268;25586;-57
2023/08/25 14:27:26;;;;;;;12.30;8.40;;;28.90;61.20;;;;;;222580;1263;22687;-59
2023/08/25 14:32:29;;;;;;;10.00;7.20;;;29.00;61.00;;;;;;221949;1266;22646;-57
2023/08/25 14:37:33;;;;;;;9.60;7.50;;;29.00;60.80;;;;;;222325;1266;22651;-55
2023/08/25 14:42:35;;;;;;;13.00;7.40;;;29.00;60.60;;;;;;222570;1268;22572;-58
2023/08/25 14:47:39;;;;;;;8.50;6.90;;;29.10;60.50;;;;;;222448;1268;24193;-58
2023/08/25 14:52:42;;;;;;;10.00;7.50;;;29.00;60.40;;;;;;222451;1260;25318;-58
2023/08/25 14:57:45;;;;;;;9.50;6.80;;;29.00;60.50;;;;;;222157;1266;22723;-56
2023/08/25 15:02:48;;;;;;;9.90;6.50;;;28.90;60.60;;;;;;222070;1266;22523;-58
2023/08/25 15:07:51;;;;;;;6.90;6.30;;;28.90;61.00;;;;;;222262;1268;22918;-57
2023/08/25 15:12:55;;;;;;;6.90;6.20;;;28.90;60.70;;;;;;221937;1269;22515;-58
2023/08/25 15:17:58;;;;;;;7.60;5.90;;;28.90;60.70;;;;;;222069;1264;24339;-58
2023/08/25 15:23:03;;;;;;;7.00;6.00;;;28.90;60.80;;;;;;222175;1268;22534;-58
2023/08/25 15:28:06;;;;;;;5.50;4.90;;;28.90;60.80;;;;;;222211;1268;22514;-57
2023/08/25 15:33:09;;;;;;;6.80;5.60;;;28.80;60.80;;;;;;222143;1269;22518;-56
2023/08/25 15:38:12;;;;;;;6.20;5.70;;;28.80;60.80;;;;;;222025;1269;24215;-58
2023/08/25 15:43:14;;;;;;;6.50;5.20;;;28.80;60.80;;;;;;222210;1268;22533;-60
2023/08/25 15:48:17;;;;;;;5.10;4.60;;;28.80;60.90;;;;;;222170;1269;22658;-57
2023/08/25 15:53:21;;;;;;;5.30;4.70;;;28.80;60.90;;;;;;222103;1263;22532;-57
2023/08/25 15:58:24;;;;;;;5.80;4.30;;;28.70;61.00;;;;;;222672;1264;22530;-56
2023/08/25 16:03:28;;;;;;;5.90;4.60;;;28.70;61.30;;;;;;221810;1269;22527;-56
2023/08/25 16:08:31;;;;;;;5.60;5.10;;;28.70;61.20;;;;;;222511;1263;22568;-58
2023/08/25 16:13:36;;;;;;;4.80;4.30;;;28.70;61.70;;;;;;221979;1267;22530;-57
2023/08/25 16:18:40;;;;;;;4.70;4.30;;;28.60;61.50;;;;;;222657;1266;23889;-57
2023/08/25 16:23:44;;;;;;;5.50;4.80;;;28.60;61.60;;;;;;222346;1263;24198;-57
2023/08/25 16:28:56;;;;;;;4.90;4.50;;;28.60;62.20;;;;;;222021;1263;22597;-57
2023/08/25 16:34:02;;;;;;;4.80;3.70;;;28.60;61.70;;;;;;222206;1244;24221;-55
2023/08/25 16:39:05;;;;;;;5.00;4.40;;;28.60;61.70;;;;;;222088;1257;22560;-57
2023/08/25 16:44:09;;;;;;;4.70;4.20;;;28.60;61.90;;;;;;222192;1253;22652;-56
2023/08/25 16:49:13;;;;;;;7.10;4.00;;;28.60;61.90;;;;;;222296;1265;25290;-58
2023/08/25 16:54:17;;;;;;;4.50;4.10;;;28.60;61.90;;;;;;222329;1264;22653;-56
2023/08/25 16:59:20;;;;;;;4.10;3.70;;;28.50;62.10;;;;;;222133;1266;25303;-57
2023/08/25 17:04:23;;;;;;;4.50;4.10;;;28.60;61.90;;;;;;222384;1268;23912;-54
2023/08/25 17:09:26;;;;;;;4.10;3.80;;;28.60;62.10;;;;;;222022;1268;22682;-56
2023/08/25 17:14:32;;;;;;;5.20;4.60;;;28.50;62.10;;;;;;222271;1266;24368;-55
2023/08/25 17:19:38;;;;;;;4.80;4.20;;;28.50;62.20;;;;;;222598;1254;26207;-57
2023/08/25 17:24:41;;;;;;;6.70;4.00;;;28.50;62.20;;;;;;222450;1268;25473;-56
2023/08/25 17:29:44;;;;;;;5.10;4.60;;;28.50;62.30;;;;;;222666;1261;25321;-55
2023/08/25 17:34:47;;;;;;;4.40;4.00;;;28.50;62.40;;;;;;222166;1266;22521;-57
2023/08/25 17:39:50;;;;;;;3.90;3.60;;;28.50;62.70;;;;;;222027;1257;22515;-58
2023/08/25 17:44:57;;;;;;;9.10;3.70;;;28.40;63.10;;;;;;222353;1268;22550;-58
2023/08/25 17:50:01;;;;;;;4.60;3.90;;;28.40;63.30;;;;;;222748;1268;24193;-58
2023/08/25 17:55:04;;;;;;;4.20;3.90;;;28.40;63.30;;;;;;222457;1261;22635;-55
2023/08/25 18:00:08;;;;;;;4.80;4.10;;;28.40;63.30;;;;;;222865;1267;22639;-58
2023/08/25 18:05:17;;;;;;;4.00;3.40;;;28.50;63.10;;;;;;222559;1260;24194;-58
2023/08/25 18:10:21;;;;;;;5.20;3.90;;;28.50;63.00;;;;;;222141;1267;22532;-57
2023/08/25 18:15:24;;;;;;;4.40;4.00;;;28.50;62.80;;;;;;222301;1261;22741;-57
2023/08/25 18:20:26;;;;;;;5.20;3.90;;;28.50;62.80;;;;;;222211;1261;22530;-57
2023/08/25 18:25:30;;;;;;;4.30;3.90;;;28.50;62.80;;;;;;222442;1257;24274;-56
2023/08/25 18:30:33;;;;;;;5.60;3.90;;;28.40;62.80;;;;;;222541;1268;24190;-59
2023/08/25 18:35:40;;;;;;;4.10;3.70;;;28.40;62.80;;;;;;222393;1264;22514;-57
2023/08/25 18:40:43;;;;;;;4.90;4.20;;;28.50;62.80;;;;;;222358;1264;22518;-57
2023/08/25 18:45:51;;;;;;;4.70;3.80;;;28.50;62.80;;;;;;222205;1268;22538;-55
2023/08/25 18:50:56;;;;;;;5.70;3.80;;;28.40;62.80;;;;;;222205;1260;25321;-54
2023/08/25 18:55:59;;;;;;;6.90;3.90;;;28.40;62.90;;;;;;222372;1267;22521;-55
2023/08/25 19:01:03;;;;;;;4.90;4.10;;;28.40;63.30;;;;;;222356;1261;25271;-57
2023/08/25 19:06:07;;;;;;;4.30;3.40;;;28.40;62.90;;;;;;222835;1267;24192;-57
2023/08/25 19:11:11;;;;;;;4.10;3.60;;;28.40;62.90;;;;;;222442;1264;23789;-58
2023/08/25 19:16:14;;;;;;;5.00;4.40;;;28.30;63.00;;;;;;222373;1264;22640;-57
2023/08/25 19:21:19;;;;;;;4.60;4.20;;;28.30;63.00;;;;;;222607;1264;22524;-56
2023/08/25 19:26:23;;;;;;;7.90;4.30;;;28.30;63.50;;;;;;222487;1256;22517;-56
2023/08/25 19:31:26;;;;;;;5.50;4.40;;;28.30;63.60;;;;;;222383;1268;26516;-57
2023/08/25 19:36:38;;;;;;;5.50;4.70;;;28.30;63.90;;;;;;222175;1266;23854;-57
2023/08/25 19:41:41;;;;;;;4.90;4.40;;;28.30;63.40;;;;;;222382;1268;22534;-57
2023/08/25 19:46:45;;;;;;;4.90;4.40;;;28.30;63.60;;;;;;222646;1257;22532;-59
2023/08/25 19:51:49;;;;;;;10.10;4.70;;;28.30;63.50;;;;;;222172;1257;25344;-58
2023/08/25 19:56:53;;;;;;;14.10;4.90;;;28.30;63.90;;;;;;222463;1261;22539;-54
2023/08/25 20:01:57;;;;;;;8.80;4.70;;;28.30;63.40;;;;;;222292;1263;24202;-55
2023/08/25 20:07:01;;;;;;;13.00;5.10;;;28.10;64.90;;;;;;222834;1261;25430;-54
2023/08/25 20:12:05;;;;;;;12.20;5.50;;;28.00;65.80;;;;;;222353;1267;25253;-54
2023/08/25 20:17:08;;;;;;;11.70;5.90;;;28.00;66.10;;;;;;222568;1268;22769;-58
2023/08/25 20:22:12;;;;;;;7.30;5.60;;;27.90;66.50;;;;;;222426;1261;23917;-56
2023/08/25 20:27:16;;;;;;;9.20;6.30;;;27.90;66.60;;;;;;222625;1257;24203;-57
2023/08/25 20:32:20;;;;;;;7.00;5.80;;;27.90;66.50;;;;;;222704;1263;25229;-56
2023/08/25 20:37:24;;;;;;;10.20;5.90;;;27.90;66.60;;;;;;222697;1268;25350;-59
2023/08/25 20:42:27;;;;;;;8.90;6.50;;;27.90;66.80;;;;;;222934;1266;22516;-54
2023/08/25 20:47:31;;;;;;;8.50;6.50;;;27.80;67.40;;;;;;222707;1268;22554;-54
2023/08/25 20:52:34;;;;;;;6.30;5.40;;;27.70;67.30;;;;;;222626;1246;24193;-56
2023/08/25 20:57:37;;;;;;;6.90;5.80;;;27.70;67.60;;;;;;222324;1267;22534;-55
2023/08/25 21:02:45;;;;;;;8.80;5.60;;;27.70;67.60;;;;;;222485;1266;24379;-55
2023/08/25 21:07:48;;;;;;;7.90;5.40;;;27.70;67.50;;;;;;222538;1261;24193;-56
2023/08/25 21:12:51;;;;;;;6.60;5.70;;;27.70;67.40;;;;;;222422;1267;22792;-54
2023/08/25 21:17:54;;;;;;;7.00;5.90;;;27.90;66.80;;;;;;222423;1260;22518;-59
2023/08/25 21:22:56;;;;;;;5.20;4.70;;;28.00;66.40;;;;;;222614;1253;24732;-57
2023/08/25 21:28:00;;;;;;;5.60;5.10;;;28.10;65.90;;;;;;222317;1260;22524;-56
2023/08/25 21:33:03;;;;;;;5.40;4.90;;;28.20;66.10;;;;;;222408;1261;22993;-55
2023/08/25 21:38:07;;;;;;;7.20;5.30;;;28.20;65.90;;;;;;222315;1253;26610;-57
2023/08/25 21:43:15;;;;;;;7.70;5.50;;;28.20;65.80;;;;;;222778;1260;22644;-55
2023/08/25 21:48:18;;;;;;;6.70;5.30;;;28.20;65.60;;;;;;222883;1260;25293;-59
2023/08/25 21:53:21;;;;;;;6.20;5.00;;;28.30;65.80;;;;;;222254;1257;22604;-56
2023/08/25 21:58:24;;;;;;;6.20;5.00;;;28.20;65.70;;;;;;222449;1267;24230;-60
2023/08/25 22:03:27;;;;;;;9.20;5.80;;;28.30;65.80;;;;;;221937;1262;22517;-58
2023/08/25 22:08:32;;;;;;;6.10;5.50;;;28.30;65.60;;;;;;222656;1260;22527;-54
2023/08/25 22:13:35;;;;;;;7.70;5.30;;;28.30;65.60;;;;;;222423;1260;22936;-55
2023/08/25 22:18:37;;;;;;;9.90;6.00;;;28.30;65.60;;;;;;222467;1254;24228;-56
2023/08/25 22:23:41;;;;;;;8.40;5.70;;;28.30;65.40;;;;;;222629;1263;22515;-55
2023/08/25 22:28:44;;;;;;;7.30;5.30;;;28.30;65.40;;;;;;222503;1261;22630;-52
2023/08/25 22:33:47;;;;;;;5.70;5.20;;;28.30;65.20;;;;;;222362;1253;22538;-55
2023/08/25 22:38:52;;;;;;;8.60;5.60;;;28.30;65.20;;;;;;222527;1263;24272;-55
2023/08/25 22:43:55;;;;;;;7.80;5.90;;;28.40;65.00;;;;;;222489;1257;22524;-55
2023/08/25 22:48:58;;;;;;;6.70;6.10;;;28.40;64.80;;;;;;222041;1263;22645;-57
2023/08/25 22:54:01;;;;;;;6.80;5.90;;;28.40;64.50;;;;;;222276;1260;24368;-57
2023/08/25 22:59:04;;;;;;;6.80;6.20;;;28.40;64.20;;;;;;222337;1263;22619;-55
2023/08/25 23:04:07;;;;;;;5.40;5.00;;;28.30;64.50;;;;;;222148;1266;22517;-55
2023/08/25 23:09:14;;;;;;;7.90;7.00;;;28.20;64.60;;;;;;222383;1253;22994;-56
2023/08/25 23:14:17;;;;;;;8.40;6.80;;;28.30;64.60;;;;;;222717;1256;22518;-56
2023/08/25 23:19:19;;;;;;;7.70;7.00;;;28.30;64.90;;;;;;222220;1266;22777;-55
2023/08/25 23:24:23;;;;;;;8.30;7.20;;;28.20;64.70;;;;;;222445;1254;22620;-58
2023/08/25 23:29:26;;;;;;;10.90;6.90;;;28.10;65.40;;;;;;222774;1263;22511;-56
2023/08/25 23:34:29;;;;;;;7.70;7.00;;;28.10;65.50;;;;;;222374;1261;22525;-55
2023/08/25 23:39:32;;;;;;;8.50;7.70;;;28.00;65.60;;;;;;222455;1263;22540;-56
2023/08/25 23:44:34;;;;;;;11.50;8.00;;;28.00;65.70;;;;;;222436;1256;22912;-56
2023/08/25 23:49:37;;;;;;;7.30;6.50;;;28.00;65.80;;;;;;222394;1254;22642;-56
2023/08/25 23:54:41;;;;;;;7.10;6.50;;;28.00;66.30;;;;;;222473;1266;22519;-55
2023/08/25 23:59:45;;;;;;;6.90;6.30;;;27.90;65.60;;;;;;222533;1263;22539;-56
